Mackinaw City, MI

8:46 PM EST on November 27, 2014 (GMT -0500)
Harbor Springs | Change Station
CLOSE
Current Station
Airport
Location: Harbor Springs,
Elevation: 686 ft
Nearby Weather Stations

Elev 686 ft 45.43 °N, 84.91 °W | Updated 11 minutes ago

Mostly Cloudy
Mostly Cloudy
18 °F
Feels Like 6 °F
N
9
Wind Variable Wind from WNW

Today
High -- | Low -- °F
--% Chance of Precip.
Yesterday
High -- | Low -- °F
Precip. -- in
7:54 AM 4:58 PM
Waxing Crescent, 35% visible
Pressure 30.28 in
Visibility 7.0 miles
Clouds Overcast 3400 ft
Windchill 6 °F
Dew Point 8 °F
Humidity 65%
Rainfall 0.00 in
Snow Depth Not available.
UV 0 out of 12
Pollen .10 out of 12
Air Quality Not available.
Flu Activity Not available.
METAR KMGN 280135Z AUTO 30008KT 270V330 7SM -SN OVC034 M07/M13 A3028 RMK AO2 T10801136

More Conditions Fewer Conditions

Pressure 30.28 in
Visibility 7.0 miles
Clouds Overcast 3400 ft
Windchill 6 °F
Dew Point 8 °F
Humidity 65%
Rainfall 0.00 in
Snow Depth Not available.
UV 0 out of 12
Pollen .10 out of 12
Air Quality Not available.
Flu Activity Not available.
METAR KMGN 280135Z AUTO 30008KT 270V330 7SM -SN OVC034 M07/M13 A3028 RMK AO2 T10801136

More Conditions Fewer Conditions

Nowcast | as of 8:00 PM EST on November 27, 2014

At 9 PM...mostly cloudy. Scattered snow showers. Temperature 19. Northwest winds 8 mph. At 11 PM...mostly cloudy. Scattered snow showers. Temperature 18. Northwest winds 8 mph. At 1 am...mostly cloudy. Scattered snow showers. Temperature 18. Northwest winds 7 mph. At 3 am...mostly cloudy. Scattered snow showers. Temperature 18. West winds 6 mph.

×

10-Day Weather Forecast

Almanac

Astronomy

Nov. 27, 2014 Rise Set
Actual Time
Civil Twilight
Nautical Twilight
Astronomical Twilight
Moon
Length of Visible Light
Length of Day
Tomorrow will be .
, % of the Moon is Illuminated

Today's Extremes

State Highs State Lows

Community

WunderPhotos

Upload Photos

1,774,151 photos uploaded!

WunderBlogs® & News

Nearby

Air Quality

  Air Quality AQ Index Pollutant
Not available.

Snow Depth

Station Depth Elevation

Earthquake Activity

City Distance Mag. Time & Date
Minimum magnitude displayed is 2.5.

Coastal Water Temperatures

Place Temperature

Nearby Weather Stations